< < Back
Terminal Aerodrome Forecast


Current Version              Previous Versions:   1  2  3  4  5  6  7  8  9  

Terminal Aerodrome Forecast

215
FTUS42 KFFC 290330 AAB
TAFATL
TAF AMD
KATL 290330Z 2904/3006 08005KT P6SM SCT015 BKN120
     FM290900 10003KT 5SM BR SCT008 BKN015
     FM291500 14005KT P6SM BKN025
     FM291800 13006KT P6SM SCT035 PROB30 2919/2922 5SM TSRA BKN025CB
     FM300200 13005KT P6SM FEW040 SCT120=



Latest METAR

748
SAUS70 KWBC 290600
MTRATL
METAR KATL 290552Z 00000KT 8SM BKN005 BKN150 BKN200 BKN250 21/19 A3017
RMK AO2 SLP208 CIG 004V006 60002 T02110189 10217 20206
58015


USA.gov is the U.S. government's official web portal to all federal, state and local government web resources and services.